Check out our new PWSWeather beta!
PWSweather.com
Personal Weather Stations
Station Observations
DAVIS2016
WorthingGB

WorthingGB

Lat: 50.8130266, Lon: -0.3832443000000012

Elevation: 34.8

Station Type: davis vantage vue 6250

Latest ConditionsUpdated 9:30:00 PM GMT Monday, Feb 24, 2020
Currently Today's Max Today's Min Today's Average
Temperature 48.8°F9.3°C 50.1°F10.1°C 45.2°F7.3°C 48.7°F9.3°C
Dew Point 42.9°F6.1°C 49.0°F9.4°C 42.2°F5.7°C 47.1°F8.4°C
Winds 6.0 mph NW9.7 kmh NW 13.0 mph -20.9 kmh - - 6.8 mph 10.9 kmh
Wind Gusts 17.0 mph27.4 kmh 31.0 mph49.9 kmh - -
Humidity 80% 97% 80% 94%
Pressure 29.74 in1007.1 mb 30.23 in1023.7 mb 29.73 in1006.8 mb -
Precipitation - 0.24 in6.1 mm - -
Hour Temp Dew Point Humidity Winds Wind Gusts Pressure Precip Precip Rate Daily Precip Total
09:30 PM 48.8°F9.3°C 42.9°F6.1°C 80% 6.0 mph NW9.7 kmh NW 17.0 mph27.4 kmh 29.74 in1007.1 mb 0.00 in0.0 mm 0.00 in0.0 mm 0.24 in6.1 mm
09:15 PM 48.9°F9.4°C 44.0°F6.7°C 83% 5.0 mph NW8.0 kmh NW 14.0 mph22.5 kmh 29.74 in1007.1 mb 0.00 in0.0 mm 0.00 in0.0 mm 0.24 in6.1 mm
09:00 PM 49.0°F9.4°C 45.0°F7.2°C 86% 4.0 mph NW6.4 kmh NW 14.0 mph22.5 kmh 29.75 in1007.5 mb 0.00 in0.0 mm 0.00 in0.0 mm 0.24 in6.1 mm
08:45 PM 49.0°F9.4°C 46.5°F8.1°C 91% 3.0 mph NW4.8 kmh NW 11.0 mph17.7 kmh 29.74 in1007.1 mb 0.00 in0.0 mm 0.00 in0.0 mm 0.24 in6.1 mm
08:30 PM 49.1°F9.5°C 47.2°F8.4°C 93% 3.0 mph W4.8 kmh W 11.0 mph17.7 kmh 29.74 in1007.1 mb 0.00 in0.0 mm 0.00 in0.0 mm 0.24 in6.1 mm
08:15 PM 49.2°F9.6°C 47.5°F8.6°C 94% 3.0 mph WNW4.8 kmh WNW 13.0 mph20.9 kmh 29.75 in1007.5 mb 0.00 in0.0 mm 0.00 in0.0 mm 0.24 in6.1 mm
08:00 PM 49.3°F9.6°C 47.6°F8.7°C 94% 3.0 mph W4.8 kmh W 11.0 mph17.7 kmh 29.75 in1007.5 mb 0.00 in0.0 mm 0.00 in0.0 mm 0.24 in6.1 mm
07:45 PM 49.5°F9.7°C 47.8°F8.8°C 94% 4.0 mph WNW6.4 kmh WNW 12.0 mph19.3 kmh 29.75 in1007.5 mb 0.00 in0.0 mm 0.00 in0.0 mm 0.24 in6.1 mm
07:30 PM 49.6°F9.8°C 47.9°F8.8°C 94% 3.0 mph W4.8 kmh W 15.0 mph24.1 kmh 29.75 in1007.5 mb 0.00 in0.0 mm 0.00 in0.0 mm 0.24 in6.1 mm
07:15 PM 49.5°F9.7°C 48.1°F8.9°C 95% 5.0 mph W8.0 kmh W 14.0 mph22.5 kmh 29.74 in1007.1 mb 0.00 in0.0 mm 0.00 in0.0 mm 0.24 in6.1 mm
07:00 PM 49.7°F9.8°C 48.3°F9.1°C 95% 5.0 mph W8.0 kmh W 17.0 mph27.4 kmh 29.74 in1007.1 mb 0.00 in0.0 mm 0.00 in0.0 mm 0.24 in6.1 mm
06:45 PM 49.9°F9.9°C 48.5°F9.2°C 95% 7.0 mph W11.3 kmh W 17.0 mph27.4 kmh 29.74 in1007.1 mb 0.00 in0.0 mm 0.00 in0.0 mm 0.24 in6.1 mm
06:30 PM 50.0°F10.0°C 48.6°F9.2°C 95% 6.0 mph W9.7 kmh W 16.0 mph25.7 kmh 29.74 in1007.1 mb 0.00 in0.0 mm 0.00 in0.0 mm 0.24 in6.1 mm
06:15 PM 50.0°F10.0°C 48.6°F9.2°C 95% 8.0 mph W12.9 kmh W 21.0 mph33.8 kmh 29.73 in1006.8 mb 0.00 in0.0 mm 0.00 in0.0 mm 0.24 in6.1 mm
06:00 PM 50.1°F10.1°C 48.7°F9.3°C 95% 8.0 mph W12.9 kmh W 23.0 mph37.0 kmh 29.73 in1006.8 mb 0.00 in0.0 mm 0.00 in0.0 mm 0.24 in6.1 mm
05:45 PM 50.1°F10.1°C 49.0°F9.4°C 96% 11.0 mph W17.7 kmh W 24.0 mph38.6 kmh 29.73 in1006.8 mb 0.00 in0.0 mm 0.00 in0.0 mm 0.24 in6.1 mm
05:30 PM 50.1°F10.1°C 49.0°F9.4°C 96% 12.0 mph W19.3 kmh W 28.0 mph45.1 kmh 29.73 in1006.8 mb 0.00 in0.0 mm 0.00 in0.0 mm 0.24 in6.1 mm
05:15 PM 50.0°F10.0°C 48.9°F9.4°C 96% 11.0 mph W17.7 kmh W 24.0 mph38.6 kmh 29.73 in1006.8 mb 0.00 in0.0 mm 0.00 in0.0 mm 0.24 in6.1 mm
05:00 PM 49.9°F9.9°C 48.8°F9.3°C 96% 13.0 mph W20.9 kmh W 29.0 mph46.7 kmh 29.73 in1006.8 mb 0.00 in0.0 mm 0.00 in0.0 mm 0.24 in6.1 mm
04:45 PM 49.7°F9.8°C 48.6°F9.2°C 96% 12.0 mph W19.3 kmh W 25.0 mph40.2 kmh 29.73 in1006.8 mb 0.00 in0.0 mm 0.00 in0.0 mm 0.24 in6.1 mm
04:30 PM 49.6°F9.8°C 48.5°F9.2°C 96% 11.0 mph W17.7 kmh W 23.0 mph37.0 kmh 29.74 in1007.1 mb 0.00 in0.0 mm 0.00 in0.0 mm 0.24 in6.1 mm
04:15 PM 49.7°F9.8°C 48.6°F9.2°C 96% 11.0 mph W17.7 kmh W 24.0 mph38.6 kmh 29.74 in1007.1 mb 0.00 in0.0 mm 0.00 in0.0 mm 0.24 in6.1 mm
04:00 PM 49.7°F9.8°C 48.3°F9.1°C 95% 11.0 mph WSW17.7 kmh WSW 24.0 mph38.6 kmh 29.74 in1007.1 mb 0.00 in0.0 mm 0.00 in0.0 mm 0.24 in6.1 mm
03:45 PM 49.7°F9.8°C 48.3°F9.1°C 95% 8.0 mph WSW12.9 kmh WSW 25.0 mph40.2 kmh 29.75 in1007.5 mb 0.00 in0.0 mm 0.00 in0.0 mm 0.24 in6.1 mm
03:30 PM 49.6°F9.8°C 48.2°F9.0°C 95% 7.0 mph WSW11.3 kmh WSW 21.0 mph33.8 kmh 29.75 in1007.5 mb 0.02 in0.5 mm 0.00 in0.0 mm 0.24 in6.1 mm
03:15 PM 49.4°F9.7°C 48.3°F9.1°C 96% 9.0 mph W14.5 kmh W 21.0 mph33.8 kmh 29.76 in1007.8 mb 0.04 in1.0 mm 0.00 in0.0 mm 0.24 in6.1 mm
03:00 PM 49.3°F9.6°C 48.2°F9.0°C 96% 8.0 mph WSW12.9 kmh WSW 22.0 mph35.4 kmh 29.77 in1008.1 mb 0.07 in1.8 mm 0.00 in0.0 mm 0.24 in6.1 mm
02:45 PM 49.2°F9.6°C 48.1°F8.9°C 96% 8.0 mph W12.9 kmh W 26.0 mph41.8 kmh 29.77 in1008.1 mb 0.10 in2.5 mm 0.04 in1.0 mm 0.24 in6.1 mm
02:30 PM 49.1°F9.5°C 48.0°F8.9°C 96% 9.0 mph W14.5 kmh W 29.0 mph46.7 kmh 29.78 in1008.5 mb 0.09 in2.3 mm 0.12 in3.0 mm 0.23 in5.8 mm
02:15 PM 49.1°F9.5°C 48.0°F8.9°C 96% 10.0 mph WSW16.1 kmh WSW 25.0 mph40.2 kmh 29.79 in1008.8 mb 0.06 in1.5 mm 0.08 in2.0 mm 0.20 in5.1 mm
02:00 PM 49.0°F9.4°C 47.9°F8.8°C 96% 11.0 mph W17.7 kmh W 22.0 mph35.4 kmh 29.80 in1009.1 mb 0.04 in1.0 mm 0.03 in0.8 mm 0.17 in4.3 mm
01:45 PM 49.0°F9.4°C 47.9°F8.8°C 96% 9.0 mph W14.5 kmh W 21.0 mph33.8 kmh 29.80 in1009.1 mb 0.02 in0.5 mm 0.00 in0.0 mm 0.14 in3.6 mm
01:30 PM 48.9°F9.4°C 47.8°F8.8°C 96% 8.0 mph W12.9 kmh W 26.0 mph41.8 kmh 29.80 in1009.1 mb 0.02 in0.5 mm 0.00 in0.0 mm 0.14 in3.6 mm
01:15 PM 48.9°F9.4°C 47.8°F8.8°C 96% 8.0 mph W12.9 kmh W 24.0 mph38.6 kmh 29.81 in1009.5 mb 0.02 in0.5 mm 0.04 in1.0 mm 0.14 in3.6 mm
01:00 PM 49.0°F9.4°C 47.9°F8.8°C 96% 10.0 mph W16.1 kmh W 27.0 mph43.5 kmh 29.82 in1009.8 mb 0.01 in0.3 mm 0.01 in0.3 mm 0.13 in3.3 mm
12:45 PM 49.1°F9.5°C 48.0°F8.9°C 96% 9.0 mph W14.5 kmh W 23.0 mph37.0 kmh 29.82 in1009.8 mb 0.00 in0.0 mm 0.00 in0.0 mm 0.13 in3.3 mm
12:30 PM 49.1°F9.5°C 48.0°F8.9°C 96% 12.0 mph WSW19.3 kmh WSW 29.0 mph46.7 kmh 29.83 in1010.2 mb 0.00 in0.0 mm 0.00 in0.0 mm 0.13 in3.3 mm
12:15 PM 49.1°F9.5°C 48.0°F8.9°C 96% 9.0 mph WSW14.5 kmh WSW 25.0 mph40.2 kmh 29.84 in1010.5 mb 0.00 in0.0 mm 0.00 in0.0 mm 0.13 in3.3 mm
12:00 PM 49.2°F9.6°C 47.8°F8.8°C 95% 8.0 mph W12.9 kmh W 25.0 mph40.2 kmh 29.84 in1010.5 mb 0.00 in0.0 mm 0.00 in0.0 mm 0.13 in3.3 mm
11:45 AM 49.2°F9.6°C 47.8°F8.8°C 95% 10.0 mph WSW16.1 kmh WSW 29.0 mph46.7 kmh 29.85 in1010.8 mb 0.00 in0.0 mm 0.00 in0.0 mm 0.13 in3.3 mm
11:30 AM 49.3°F9.6°C 47.9°F8.8°C 95% 10.0 mph WSW16.1 kmh WSW 29.0 mph46.7 kmh 29.86 in1011.2 mb 0.00 in0.0 mm 0.00 in0.0 mm 0.13 in3.3 mm
11:15 AM 49.4°F9.7°C 47.7°F8.7°C 94% 10.0 mph WSW16.1 kmh WSW 22.0 mph35.4 kmh 29.87 in1011.5 mb 0.00 in0.0 mm 0.00 in0.0 mm 0.13 in3.3 mm
11:00 AM 49.7°F9.8°C 48.0°F8.9°C 94% 10.0 mph W16.1 kmh W 31.0 mph49.9 kmh 29.88 in1011.9 mb 0.00 in0.0 mm 0.00 in0.0 mm 0.13 in3.3 mm
10:45 AM 49.6°F9.8°C 48.2°F9.0°C 95% 10.0 mph W16.1 kmh W 23.0 mph37.0 kmh 29.89 in1012.2 mb 0.00 in0.0 mm 0.00 in0.0 mm 0.13 in3.3 mm
10:30 AM 49.5°F9.7°C 48.1°F8.9°C 95% 11.0 mph WSW17.7 kmh WSW 25.0 mph40.2 kmh 29.89 in1012.2 mb 0.00 in0.0 mm 0.00 in0.0 mm 0.13 in3.3 mm
10:15 AM 49.7°F9.8°C 48.3°F9.1°C 95% 8.0 mph W12.9 kmh W 24.0 mph38.6 kmh 29.90 in1012.5 mb 0.01 in0.3 mm 0.00 in0.0 mm 0.13 in3.3 mm
10:00 AM 49.7°F9.8°C 48.6°F9.2°C 96% 9.0 mph W14.5 kmh W 29.0 mph46.7 kmh 29.91 in1012.9 mb 0.02 in0.5 mm 0.00 in0.0 mm 0.13 in3.3 mm
09:45 AM 49.6°F9.8°C 48.5°F9.2°C 96% 11.0 mph W17.7 kmh W 30.0 mph48.3 kmh 29.91 in1012.9 mb 0.02 in0.5 mm 0.00 in0.0 mm 0.13 in3.3 mm
09:30 AM 49.5°F9.7°C 48.4°F9.1°C 96% 9.0 mph WSW14.5 kmh WSW 25.0 mph40.2 kmh 29.91 in1012.9 mb 0.02 in0.5 mm 0.00 in0.0 mm 0.13 in3.3 mm
09:15 AM 49.4°F9.7°C 48.3°F9.1°C 96% 8.0 mph W12.9 kmh W 21.0 mph33.8 kmh 29.92 in1013.2 mb 0.02 in0.5 mm 0.08 in2.0 mm 0.12 in3.0 mm
09:00 AM 49.6°F9.8°C 48.2°F9.0°C 95% 7.0 mph W11.3 kmh W 21.0 mph33.8 kmh 29.93 in1013.5 mb 0.00 in0.0 mm 0.00 in0.0 mm 0.10 in2.5 mm
08:45 AM 49.6°F9.8°C 48.2°F9.0°C 95% 10.0 mph WSW16.1 kmh WSW 22.0 mph35.4 kmh 29.94 in1013.9 mb 0.00 in0.0 mm 0.00 in0.0 mm 0.10 in2.5 mm
08:30 AM 49.6°F9.8°C 48.2°F9.0°C 95% 10.0 mph WSW16.1 kmh WSW 26.0 mph41.8 kmh 29.94 in1013.9 mb 0.00 in0.0 mm 0.00 in0.0 mm 0.10 in2.5 mm
08:15 AM 49.6°F9.8°C 48.2°F9.0°C 95% 12.0 mph WSW19.3 kmh WSW 27.0 mph43.5 kmh 29.95 in1014.2 mb 0.00 in0.0 mm 0.00 in0.0 mm 0.10 in2.5 mm
08:00 AM 49.7°F9.8°C 48.0°F8.9°C 94% 12.0 mph WSW19.3 kmh WSW 23.0 mph37.0 kmh 29.95 in1014.2 mb 0.00 in0.0 mm 0.00 in0.0 mm 0.10 in2.5 mm
07:45 AM 49.7°F9.8°C 48.3°F9.1°C 95% 12.0 mph WSW19.3 kmh WSW 22.0 mph35.4 kmh 29.96 in1014.6 mb 0.00 in0.0 mm 0.00 in0.0 mm 0.10 in2.5 mm
07:30 AM 49.7°F9.8°C 48.3°F9.1°C 95% 11.0 mph WSW17.7 kmh WSW 23.0 mph37.0 kmh 29.96 in1014.6 mb 0.00 in0.0 mm 0.00 in0.0 mm 0.10 in2.5 mm
07:15 AM 49.6°F9.8°C 48.2°F9.0°C 95% 9.0 mph WSW14.5 kmh WSW 23.0 mph37.0 kmh 29.97 in1014.9 mb 0.00 in0.0 mm 0.00 in0.0 mm 0.10 in2.5 mm
07:00 AM 49.4°F9.7°C 48.3°F9.1°C 96% 11.0 mph WSW17.7 kmh WSW 24.0 mph38.6 kmh 29.98 in1015.2 mb 0.00 in0.0 mm 0.00 in0.0 mm 0.10 in2.5 mm
06:45 AM 49.4°F9.7°C 48.3°F9.1°C 96% 7.0 mph WSW11.3 kmh WSW 18.0 mph29.0 kmh 30.00 in1015.9 mb 0.00 in0.0 mm 0.00 in0.0 mm 0.10 in2.5 mm
06:30 AM 49.4°F9.7°C 48.6°F9.2°C 97% 7.0 mph W11.3 kmh W 21.0 mph33.8 kmh 30.01 in1016.3 mb 0.00 in0.0 mm 0.00 in0.0 mm 0.10 in2.5 mm
06:15 AM 49.4°F9.7°C 48.6°F9.2°C 97% 5.0 mph WSW8.0 kmh WSW 21.0 mph33.8 kmh 30.01 in1016.3 mb 0.00 in0.0 mm 0.00 in0.0 mm 0.10 in2.5 mm
06:00 AM 49.6°F9.8°C 48.8°F9.3°C 97% 7.0 mph WSW11.3 kmh WSW 17.0 mph27.4 kmh 30.02 in1016.6 mb 0.00 in0.0 mm 0.00 in0.0 mm 0.10 in2.5 mm
05:45 AM 49.5°F9.7°C 48.7°F9.3°C 97% 9.0 mph WSW14.5 kmh WSW 20.0 mph32.2 kmh 30.02 in1016.6 mb 0.02 in0.5 mm 0.00 in0.0 mm 0.10 in2.5 mm
05:30 AM 49.5°F9.7°C 48.7°F9.3°C 97% 8.0 mph WSW12.9 kmh WSW 18.0 mph29.0 kmh 30.03 in1016.9 mb 0.03 in0.8 mm 0.00 in0.0 mm 0.10 in2.5 mm
05:15 AM 49.3°F9.6°C 48.5°F9.2°C 97% 7.0 mph WSW11.3 kmh WSW 17.0 mph27.4 kmh 30.04 in1017.3 mb 0.04 in1.0 mm 0.00 in0.0 mm 0.10 in2.5 mm
05:00 AM 49.2°F9.6°C 48.4°F9.1°C 97% 5.0 mph WSW8.0 kmh WSW 12.0 mph19.3 kmh 30.04 in1017.3 mb 0.05 in1.3 mm 0.03 in0.8 mm 0.10 in2.5 mm
04:45 AM 48.9°F9.4°C 48.1°F8.9°C 97% 4.0 mph SW6.4 kmh SW 11.0 mph17.7 kmh 30.05 in1017.6 mb 0.03 in0.8 mm 0.04 in1.0 mm 0.09 in2.3 mm
04:30 AM 47.5°F8.6°C 46.7°F8.2°C 97% 3.0 mph S4.8 kmh S 10.0 mph16.1 kmh 30.06 in1017.9 mb 0.02 in0.5 mm 0.00 in0.0 mm 0.07 in1.8 mm
04:15 AM 46.5°F8.1°C 45.4°F7.4°C 96% 3.0 mph S4.8 kmh S 10.0 mph16.1 kmh 30.08 in1018.6 mb 0.02 in0.5 mm 0.00 in0.0 mm 0.06 in1.5 mm
04:00 AM 46.1°F7.8°C 45.0°F7.2°C 96% 2.0 mph S3.2 kmh S 11.0 mph17.7 kmh 30.09 in1019.0 mb 0.02 in0.5 mm 0.00 in0.0 mm 0.06 in1.5 mm
03:45 AM 45.9°F7.7°C 44.8°F7.1°C 96% 4.0 mph S6.4 kmh S 10.0 mph16.1 kmh 30.10 in1019.3 mb 0.02 in0.5 mm 0.00 in0.0 mm 0.06 in1.5 mm
03:30 AM 45.7°F7.6°C 44.4°F6.9°C 95% 1.0 mph S1.6 kmh S 7.0 mph11.3 kmh 30.11 in1019.6 mb 0.02 in0.5 mm 0.00 in0.0 mm 0.05 in1.3 mm
03:15 AM 45.6°F7.6°C 44.3°F6.8°C 95% 1.0 mph S1.6 kmh S 9.0 mph14.5 kmh 30.12 in1020.0 mb 0.02 in0.5 mm 0.00 in0.0 mm 0.05 in1.3 mm
03:00 AM 45.5°F7.5°C 44.2°F6.8°C 95% 1.0 mph S1.6 kmh S 5.0 mph8.0 kmh 30.14 in1020.7 mb 0.02 in0.5 mm 0.00 in0.0 mm 0.04 in1.0 mm
02:45 AM 45.4°F7.4°C 44.1°F6.7°C 95% Calm Calm 5.0 mph8.0 kmh 30.15 in1021.0 mb 0.02 in0.5 mm 0.04 in1.0 mm 0.03 in0.8 mm
02:30 AM 45.3°F7.4°C 43.7°F6.5°C 94% Calm Calm 4.0 mph6.4 kmh 30.17 in1021.7 mb 0.01 in0.3 mm 0.00 in0.0 mm 0.02 in0.5 mm
02:15 AM 45.3°F7.4°C 43.7°F6.5°C 94% Calm Calm 3.0 mph4.8 kmh 30.18 in1022.0 mb 0.02 in0.5 mm 0.04 in1.0 mm 0.02 in0.5 mm
02:00 AM 45.2°F7.3°C 43.6°F6.4°C 94% Calm Calm 3.0 mph4.8 kmh 30.19 in1022.4 mb 0.01 in0.3 mm 0.00 in0.0 mm 0.02 in0.5 mm
01:45 AM 45.2°F7.3°C 43.3°F6.3°C 93% 2.0 mph S3.2 kmh S 7.0 mph11.3 kmh 30.20 in1022.7 mb 0.02 in0.5 mm 0.00 in0.0 mm 0.02 in0.5 mm
01:30 AM 45.3°F7.4°C 42.8°F6.0°C 91% 2.0 mph S3.2 kmh S 6.0 mph9.7 kmh 30.21 in1023.0 mb 0.02 in0.5 mm 0.04 in1.0 mm 0.02 in0.5 mm
01:15 AM 45.7°F7.6°C 42.6°F5.9°C 89% 1.0 mph S1.6 kmh S 7.0 mph11.3 kmh 30.22 in1023.4 mb 0.01 in0.3 mm 0.00 in0.0 mm 0.01 in0.3 mm
01:00 AM 46.4°F8.0°C 42.4°F5.8°C 86% 1.0 mph S1.6 kmh S 6.0 mph9.7 kmh 30.23 in1023.7 mb 0.01 in0.3 mm 0.01 in0.3 mm 0.01 in0.3 mm
12:45 AM 47.0°F8.3°C 42.4°F5.8°C 84% Calm Calm 4.0 mph6.4 kmh 30.23 in1023.7 mb 0.00 in0.0 mm 0.00 in0.0 mm 0.00 in0.0 mm
12:30 AM 47.3°F8.5°C 43.3°F6.3°C 86% Calm Calm -- 30.23 in1023.7 mb 0.00 in0.0 mm 0.00 in0.0 mm 0.00 in0.0 mm
12:15 AM 47.2°F8.4°C 42.3°F5.7°C 83% Calm Calm -- 30.23 in1023.7 mb 0.00 in0.0 mm 0.00 in0.0 mm 0.00 in0.0 mm
12:00 AM 47.4°F8.6°C 42.2°F5.7°C 82% Calm Calm -- 30.23 in1023.7 mb 0.00 in0.0 mm 0.00 in0.0 mm 0.00 in0.0 mm